Tuscaloosa, Alabama
Current Conditions -  °F | °C
As of 7:53 AM on Thursday 18 Dec 2014 (Local Time) from KTCL Reporting Station
Overcast Overcast  
Wind Chill: 36°   Ceiling: 9500
Heat Index: 40°   Visibility: 8mi
Dew Point: 35°   Wind: 6mph
Humidity: 83%   Direction: 70°ENE
Pressure: 30.22"   Gusts: NA
Location:  33.21°N, 87.56°W
Report Text: KTCL 181353Z 07005KT 8SM OVC095 04/02 A3022 RMK AO2 SLP234 T00440017
Loading
Personal Weather Stations






























Interactive Weather Map New forecast layout! Learn more

10-Day Weather Forecast

Advertisements
Track Severe Weather on mobile